createdAt,value
2023-03-26T00:00:43.738Z,6.7
2023-03-26T00:15:40.716Z,6.7
2023-03-26T00:30:40.998Z,6.7
2023-03-26T00:45:43.124Z,6.7
2023-03-26T01:00:42.299Z,6.5
2023-03-26T01:15:41.497Z,6.4
2023-03-26T01:30:41.878Z,6.7
2023-03-26T01:45:43.138Z,6.9
2023-03-26T02:00:43.122Z,7.1
2023-03-26T02:15:43.719Z,7
2023-03-26T05:14:58.542Z,5.7
2023-03-26T05:30:00.474Z,5.7
2023-03-26T05:45:00.925Z,5.8
2023-03-26T06:00:00.414Z,5.7
2023-03-26T06:15:00.702Z,5.7
2023-03-26T06:30:00.860Z,5.7
2023-03-26T06:45:02.767Z,5.9
2023-03-26T07:00:02.142Z,5.8
2023-03-26T07:15:03.754Z,5.7
2023-03-26T07:30:10.034Z,5.7
2023-03-26T07:45:03.523Z,5.9
2023-03-26T08:00:19.546Z,5.9
2023-03-26T08:15:04.136Z,6
2023-03-26T08:30:21.242Z,6
2023-03-26T08:45:04.851Z,5.8
2023-03-26T09:00:05.976Z,5.8
2023-03-26T09:15:06.660Z,5.4
2023-03-26T09:30:06.782Z,5.2
2023-03-26T09:45:08.615Z,5.2
2023-03-26T10:00:08.454Z,5.1
2023-03-26T10:15:09.547Z,5.5
2023-03-26T10:30:08.509Z,5.9
2023-03-26T10:45:14.487Z,5.9
2023-03-26T11:00:09.831Z,6.7
2023-03-26T11:15:37.516Z,6.7
2023-03-26T11:30:11.358Z,6.5
2023-03-26T11:45:19.799Z,6.5
2023-03-26T12:00:12.131Z,6.2
2023-03-26T12:15:14.560Z,6.2
2023-03-26T12:30:12.646Z,6.3
2023-03-26T12:45:13.505Z,6.7
2023-03-26T13:00:13.745Z,7
2023-03-26T13:15:17.493Z,7
2023-03-26T13:30:14.971Z,7.4
2023-03-26T13:45:27.336Z,7.4
2023-03-26T14:00:16.469Z,8
2023-03-26T14:15:15.963Z,8.2
2023-03-26T14:45:23.506Z,8.2
2023-03-26T15:00:18.421Z,5.2
2023-03-26T15:15:18.367Z,6.7
2023-03-26T15:30:18.539Z,7.1
2023-03-26T15:45:19.234Z,7
2023-03-26T16:00:19.616Z,7
2023-03-26T16:15:20.320Z,6.6
2023-03-26T16:30:21.266Z,5
2023-03-26T22:15:38.031Z,5
